createdAt,value
2022-08-22T00:02:34.276Z,1.90
2022-08-22T00:03:01.814Z,1.70
2022-08-22T00:05:37.498Z,1.77
2022-08-22T00:08:40.527Z,1.92
2022-08-22T00:11:42.758Z,2.00
2022-08-22T00:14:45.406Z,1.90
2022-08-22T00:17:47.938Z,1.45
2022-08-22T00:20:51.142Z,1.90
2022-08-22T00:23:54.363Z,1.80
2022-08-22T00:26:57.671Z,1.73
2022-08-22T00:30:00.197Z,1.80
2022-08-22T00:33:03.205Z,2.03
2022-08-22T00:36:06.424Z,1.98
2022-08-22T00:39:09.463Z,1.98
2022-08-22T00:42:12.360Z,1.90
2022-08-22T00:45:15.544Z,1.73
2022-08-22T00:48:19.329Z,1.70
2022-08-22T00:51:23.754Z,1.90
2022-08-22T00:54:26.647Z,2.05
2022-08-22T00:57:29.549Z,2.08
2022-08-22T01:00:34.354Z,2.08
2022-08-22T01:03:39.077Z,1.90
2022-08-22T01:06:42.156Z,1.70
2022-08-22T01:09:45.429Z,1.83
2022-08-22T01:12:48.406Z,1.80
2022-08-22T01:15:51.943Z,1.80
2022-08-22T01:18:54.812Z,2.20
2022-08-22T01:21:57.275Z,1.90
2022-08-22T01:25:00.136Z,1.73
2022-08-22T01:28:04.244Z,1.83
2022-08-22T01:31:08.839Z,1.83
2022-08-22T01:34:13.008Z,1.80
2022-08-22T01:37:16.136Z,1.95
2022-08-22T01:40:18.877Z,1.92
2022-08-22T01:43:21.740Z,1.85
2022-08-22T01:46:44.285Z,1.80
2022-08-22T01:49:46.765Z,1.90
2022-08-22T01:52:50.232Z,1.80
2022-08-22T01:55:53.765Z,1.67
2022-08-22T01:58:55.937Z,1.80
2022-08-22T02:01:58.417Z,1.75
2022-08-22T02:05:01.948Z,1.73
2022-08-22T02:08:04.910Z,1.83
2022-08-22T02:11:07.538Z,1.90
2022-08-22T02:14:10.237Z,2.10
2022-08-22T02:17:12.485Z,1.98
2022-08-22T02:20:15.078Z,1.90
2022-08-22T02:23:22.904Z,1.95
2022-08-22T02:26:25.055Z,2.00
2022-08-22T02:29:27.901Z,1.63
2022-08-22T02:32:30.905Z,1.92
2022-08-22T02:35:33.603Z,1.75
2022-08-22T02:38:36.524Z,1.77
2022-08-22T02:41:39.382Z,1.70
2022-08-22T02:44:42.048Z,1.90
2022-08-22T02:47:44.903Z,2.00
2022-08-22T02:50:48.124Z,1.70
2022-08-22T02:53:50.963Z,1.65
2022-08-22T02:56:53.263Z,1.88
2022-08-22T02:59:56.180Z,1.77
2022-08-22T03:02:59.289Z,1.95
2022-08-22T03:06:02.498Z,1.80
2022-08-22T03:09:05.868Z,2.28
2022-08-22T03:12:08.685Z,2.22
2022-08-22T03:15:10.875Z,2.05
2022-08-22T03:18:13.101Z,2.10
2022-08-22T03:21:15.807Z,2.58
2022-08-22T03:24:19.102Z,2.10
2022-08-22T03:27:32.808Z,2.30
2022-08-22T03:30:35.507Z,2.40
2022-08-22T03:33:38.152Z,2.35
2022-08-22T03:36:42.183Z,9.60
2022-08-22T03:39:44.830Z,15.40
2022-08-22T03:42:47.842Z,39.20
2022-08-22T03:45:51.774Z,26.38
2022-08-22T03:48:54.799Z,24.23
2022-08-22T03:51:57.496Z,22.95
2022-08-22T03:55:00.635Z,21.77
2022-08-22T03:58:03.955Z,22.15
2022-08-22T04:01:06.447Z,20.27
2022-08-22T04:04:09.405Z,20.30
2022-08-22T04:07:32.201Z,20.08
2022-08-22T04:10:35.056Z,19.00
2022-08-22T04:13:37.551Z,17.70
2022-08-22T04:16:40.417Z,18.13
2022-08-22T04:19:42.942Z,17.05
2022-08-22T04:22:46.194Z,17.25
2022-08-22T04:25:49.495Z,16.70
2022-08-22T04:28:52.341Z,16.27
2022-08-22T04:31:55.317Z,16.63
2022-08-22T04:34:58.621Z,16.40
2022-08-22T04:38:01.558Z,15.75
2022-08-22T04:41:04.859Z,16.30
2022-08-22T04:44:07.142Z,16.13
2022-08-22T04:47:09.655Z,15.73
2022-08-22T04:50:12.916Z,15.40
2022-08-22T04:53:15.922Z,14.70
2022-08-22T04:56:18.904Z,15.13
2022-08-22T04:59:22.141Z,14.65
2022-08-22T05:02:27.622Z,15.00
2022-08-22T05:05:30.545Z,14.32
2022-08-22T05:08:33.509Z,14.88
2022-08-22T05:11:36.677Z,14.45
2022-08-22T05:14:39.616Z,13.77
2022-08-22T05:17:42.359Z,13.63
2022-08-22T05:20:45.049Z,12.68
2022-08-22T05:23:48.768Z,13.65
2022-08-22T05:26:52.002Z,13.65
2022-08-22T05:29:55.581Z,12.88
2022-08-22T05:32:58.503Z,13.43
2022-08-22T05:36:01.194Z,13.15
2022-08-22T05:39:04.195Z,12.55
2022-08-22T05:42:07.053Z,12.27
2022-08-22T05:45:12.250Z,13.18
2022-08-22T05:48:14.752Z,12.18
2022-08-22T05:51:18.786Z,12.05
2022-08-22T05:54:22.351Z,12.15
2022-08-22T05:57:37.336Z,11.98
2022-08-22T06:00:40.716Z,11.57
2022-08-22T06:03:43.452Z,10.35
2022-08-22T06:06:50.521Z,10.32
2022-08-22T06:09:53.149Z,10.27
2022-08-22T06:12:57.555Z,10.65
2022-08-22T06:16:00.894Z,11.27
2022-08-22T06:19:03.822Z,9.80
2022-08-22T06:22:21.760Z,9.48
2022-08-22T06:25:24.285Z,9.82
2022-08-22T06:28:27.133Z,9.77
2022-08-22T06:31:29.787Z,9.45
2022-08-22T06:34:32.403Z,10.00
2022-08-22T06:37:34.788Z,9.35
2022-08-22T06:40:38.588Z,8.80
2022-08-22T06:43:41.067Z,9.45
2022-08-22T06:46:43.400Z,8.63
2022-08-22T06:49:45.674Z,8.65
2022-08-22T06:52:48.734Z,9.38
2022-08-22T06:55:51.230Z,8.23
2022-08-22T06:58:54.293Z,8.68
2022-08-22T07:01:57.094Z,8.73
2022-08-22T07:05:00.558Z,8.30
2022-08-22T07:08:03.548Z,7.95
2022-08-22T07:11:06.367Z,8.13
2022-08-22T07:14:08.999Z,8.48
2022-08-22T07:17:11.714Z,8.20
2022-08-22T07:20:15.042Z,7.63
2022-08-22T07:23:18.488Z,7.95
2022-08-22T07:26:21.097Z,7.07
2022-08-22T07:29:24.079Z,7.93
2022-08-22T07:32:26.563Z,7.30
2022-08-22T07:35:29.498Z,6.93
2022-08-22T07:38:31.873Z,7.32
2022-08-22T07:41:34.814Z,7.00
2022-08-22T07:44:39.362Z,6.60
2022-08-22T07:47:42.254Z,6.95
2022-08-22T07:50:45.628Z,6.57
2022-08-22T07:53:48.331Z,6.60
2022-08-22T07:56:50.820Z,6.15
2022-08-22T07:59:53.439Z,6.50
2022-08-22T08:02:55.903Z,6.32
2022-08-22T08:05:58.786Z,5.82
2022-08-22T08:09:01.420Z,5.93
2022-08-22T08:12:03.607Z,5.95
2022-08-22T08:15:05.770Z,5.40
2022-08-22T08:18:08.455Z,5.68
2022-08-22T08:21:11.405Z,5.30
2022-08-22T08:24:14.692Z,5.38
2022-08-22T08:27:18.215Z,5.72
2022-08-22T08:30:20.802Z,5.68
2022-08-22T08:33:25.788Z,5.30
2022-08-22T08:36:29.669Z,4.88
2022-08-22T08:39:35.346Z,4.80
2022-08-22T08:42:39.038Z,4.72
2022-08-22T08:45:41.933Z,4.68
2022-08-22T08:48:44.585Z,4.65
2022-08-22T08:51:46.802Z,4.60
2022-08-22T08:54:49.270Z,4.53
2022-08-22T08:57:52.151Z,4.78
2022-08-22T09:00:55.064Z,4.20
2022-08-22T09:03:59.641Z,4.50
2022-08-22T09:07:03.873Z,4.13
2022-08-22T09:10:08.022Z,4.53
2022-08-22T09:13:12.899Z,3.92
2022-08-22T09:16:15.542Z,4.63
2022-08-22T09:19:18.692Z,4.07
2022-08-22T09:22:21.196Z,4.00
2022-08-22T09:25:24.235Z,3.60
2022-08-22T09:28:28.338Z,3.58
2022-08-22T09:31:44.807Z,3.30
2022-08-22T09:34:50.968Z,3.38
2022-08-22T09:37:53.579Z,3.55
2022-08-22T09:40:57.810Z,3.30
2022-08-22T09:44:03.009Z,3.42
2022-08-22T09:47:05.968Z,2.75
2022-08-22T09:50:09.845Z,3.50
2022-08-22T09:53:12.089Z,3.35
2022-08-22T09:56:15.786Z,3.15
2022-08-22T09:59:18.473Z,2.97
2022-08-22T10:02:22.806Z,2.85
2022-08-22T10:05:40.754Z,2.70
2022-08-22T10:08:46.913Z,2.75
2022-08-22T10:11:49.948Z,2.80
2022-08-22T10:14:52.325Z,2.80
2022-08-22T10:17:54.974Z,2.88
2022-08-22T10:20:59.360Z,2.75
2022-08-22T10:24:02.301Z,3.05
2022-08-22T10:27:10.975Z,2.67
2022-08-22T10:30:13.837Z,2.90
2022-08-22T10:33:19.245Z,1.80
2022-08-22T10:36:26.227Z,2.08
2022-08-22T10:39:29.413Z,2.10
2022-08-22T10:42:35.730Z,2.40
2022-08-22T10:45:39.421Z,2.17
2022-08-22T10:48:42.554Z,2.20
2022-08-22T10:51:45.631Z,2.08
2022-08-22T10:54:48.725Z,2.30
2022-08-22T10:57:53.162Z,2.15
2022-08-22T11:00:56.880Z,2.00
2022-08-22T11:03:59.338Z,2.03
2022-08-22T11:07:02.402Z,2.00
2022-08-22T11:10:05.474Z,2.00
2022-08-22T11:13:08.295Z,1.92
2022-08-22T11:16:11.258Z,1.90
2022-08-22T11:19:15.274Z,1.60
2022-08-22T11:22:18.438Z,2.08
2022-08-22T11:25:35.800Z,1.90
2022-08-22T11:28:38.487Z,1.83
2022-08-22T11:31:47.262Z,1.75
2022-08-22T11:34:54.493Z,1.70
2022-08-22T11:37:58.594Z,2.55
2022-08-22T11:41:02.421Z,4.40
2022-08-22T11:44:06.758Z,4.18
2022-08-22T11:47:09.567Z,5.05
2022-08-22T11:50:13.415Z,3.13
2022-08-22T11:53:16.872Z,3.72
2022-08-22T11:56:20.050Z,2.90
2022-08-22T11:59:23.456Z,2.35
2022-08-22T12:02:26.527Z,2.00
2022-08-22T12:05:29.255Z,2.42
2022-08-22T12:08:32.605Z,2.50
2022-08-22T12:11:36.535Z,1.83
2022-08-22T12:14:39.372Z,2.28
2022-08-22T12:17:55.300Z,1.90
2022-08-22T12:21:02.878Z,2.38
2022-08-22T12:24:11.071Z,2.05
2022-08-22T12:27:29.055Z,1.70
2022-08-22T12:30:31.340Z,2.63
2022-08-22T12:33:34.003Z,2.33
2022-08-22T12:36:37.664Z,2.00
2022-08-22T12:39:41.411Z,2.40
2022-08-22T12:42:44.638Z,1.80
2022-08-22T12:45:50.887Z,1.90
2022-08-22T12:48:53.700Z,2.30
2022-08-22T12:52:00.955Z,1.65
2022-08-22T12:55:08.864Z,2.08
2022-08-22T12:58:11.701Z,2.70
2022-08-22T13:01:15.004Z,2.88
2022-08-22T13:04:29.760Z,3.65
2022-08-22T13:07:36.002Z,3.80
2022-08-22T13:10:38.748Z,5.13
2022-08-22T13:13:40.976Z,5.53
2022-08-22T13:16:48.973Z,5.35
2022-08-22T13:19:53.527Z,5.57
2022-08-22T13:22:56.068Z,5.80
2022-08-22T13:26:01.188Z,5.20
2022-08-22T13:29:24.543Z,5.22
2022-08-22T13:32:26.683Z,6.00
2022-08-22T13:35:30.908Z,5.45
2022-08-22T13:38:34.548Z,5.57
2022-08-22T13:41:44.195Z,5.93
2022-08-22T13:44:47.448Z,5.30
2022-08-22T13:47:50.230Z,5.05
2022-08-22T13:50:54.077Z,5.65
2022-08-22T13:54:00.775Z,5.60
2022-08-22T13:57:03.089Z,5.47
2022-08-22T14:00:06.724Z,5.45
2022-08-22T14:03:09.787Z,5.15
2022-08-22T14:06:36.787Z,5.22
2022-08-22T14:09:35.424Z,4.75
2022-08-22T14:12:50.087Z,4.72
2022-08-22T14:15:53.791Z,4.82
2022-08-22T14:18:56.982Z,4.85
2022-08-22T14:21:59.969Z,4.43
2022-08-22T14:25:02.934Z,4.63
2022-08-22T14:28:09.364Z,4.40
2022-08-22T14:31:13.818Z,4.50
2022-08-22T14:34:16.653Z,4.55
2022-08-22T14:37:18.938Z,4.30
2022-08-22T14:40:21.873Z,4.00
2022-08-22T14:43:26.764Z,4.40
2022-08-22T14:46:29.776Z,4.07
2022-08-22T14:49:32.956Z,4.50
2022-08-22T14:52:36.320Z,3.90
2022-08-22T14:55:39.554Z,4.35
2022-08-22T14:58:42.938Z,4.00
2022-08-22T15:01:45.539Z,3.88
2022-08-22T15:04:49.363Z,3.90
2022-08-22T15:07:53.557Z,3.78
2022-08-22T15:10:56.562Z,3.95
2022-08-22T15:14:00.150Z,3.53
2022-08-22T15:17:02.785Z,3.72
2022-08-22T15:20:08.142Z,3.20
2022-08-22T15:23:13.766Z,3.25
2022-08-22T15:26:17.617Z,3.30
2022-08-22T15:29:20.275Z,3.40
2022-08-22T15:32:22.837Z,2.97
2022-08-22T15:35:29.914Z,3.60
2022-08-22T15:38:36.229Z,2.97
2022-08-22T15:41:39.459Z,2.75
2022-08-22T15:44:44.369Z,2.63
2022-08-22T15:47:46.504Z,2.83
2022-08-22T15:50:48.732Z,2.70
2022-08-22T15:53:54.167Z,2.90
2022-08-22T15:56:58.101Z,2.70
2022-08-22T16:00:00.624Z,2.72
2022-08-22T16:03:06.403Z,2.38
2022-08-22T16:06:09.853Z,2.20
2022-08-22T16:09:13.541Z,1.77
2022-08-22T16:12:16.823Z,1.85
2022-08-22T16:15:19.697Z,1.58
2022-08-22T16:18:22.688Z,1.73
2022-08-22T16:21:25.882Z,1.83
2022-08-22T16:24:29.850Z,1.70
2022-08-22T16:27:34.718Z,1.70
2022-08-22T16:30:37.337Z,1.80
2022-08-22T16:33:39.943Z,1.50
2022-08-22T16:36:43.530Z,1.90
2022-08-22T16:39:46.603Z,1.67
2022-08-22T16:42:49.404Z,1.70
2022-08-22T16:45:51.995Z,1.77
2022-08-22T16:48:55.776Z,1.80
2022-08-22T16:51:59.011Z,1.90
2022-08-22T16:55:02.052Z,1.63
2022-08-22T16:58:06.660Z,1.50
2022-08-22T17:01:09.754Z,1.63
2022-08-22T17:04:12.324Z,1.70
2022-08-22T17:07:14.982Z,1.65
2022-08-22T17:10:17.837Z,1.67
2022-08-22T17:13:20.002Z,1.70
2022-08-22T17:16:23.103Z,2.00
2022-08-22T17:19:26.541Z,2.08
2022-08-22T17:22:29.342Z,1.77
2022-08-22T17:25:31.629Z,1.70
2022-08-22T17:28:34.663Z,1.80
2022-08-22T17:31:38.464Z,1.92
2022-08-22T17:34:41.446Z,1.80
2022-08-22T17:37:43.718Z,1.75
2022-08-22T17:40:46.779Z,1.90
2022-08-22T17:43:49.794Z,1.90
2022-08-22T17:46:52.773Z,1.52
2022-08-22T17:49:55.760Z,2.03
2022-08-22T17:52:58.828Z,2.10
2022-08-22T17:56:01.551Z,1.90
2022-08-22T17:59:03.992Z,1.98
2022-08-22T18:02:07.363Z,1.80
2022-08-22T18:05:11.202Z,1.67
2022-08-22T18:11:40.282Z,1.50
2022-08-22T18:14:43.583Z,1.75
2022-08-22T18:17:46.964Z,1.70
2022-08-22T18:20:49.195Z,1.92
2022-08-22T18:23:51.703Z,1.55
2022-08-22T18:26:54.710Z,1.75
2022-08-22T18:29:57.419Z,1.67
2022-08-22T18:33:00.422Z,1.80
2022-08-22T18:36:03.642Z,1.67
2022-08-22T18:39:07.050Z,2.13
2022-08-22T18:42:10.081Z,1.70
2022-08-22T18:45:13.044Z,1.80
2022-08-22T18:48:15.733Z,1.70
2022-08-22T18:51:21.264Z,1.90
2022-08-22T18:54:26.862Z,1.80
2022-08-22T18:57:29.295Z,1.88
2022-08-22T19:00:32.295Z,1.90
2022-08-22T19:03:35.697Z,1.90
2022-08-22T19:06:37.903Z,1.63
2022-08-22T19:09:40.635Z,1.83
2022-08-22T19:12:43.363Z,2.00
2022-08-22T19:15:46.028Z,1.92
2022-08-22T19:18:48.666Z,2.10
2022-08-22T19:21:51.372Z,1.90
2022-08-22T19:24:53.884Z,1.80
2022-08-22T19:27:57.308Z,1.60
2022-08-22T19:30:59.818Z,1.90
2022-08-22T19:34:02.663Z,1.77
2022-08-22T19:37:06.574Z,1.88
2022-08-22T19:40:12.790Z,1.80
2022-08-22T19:43:15.350Z,2.00
2022-08-22T19:46:18.501Z,1.85
2022-08-22T19:49:21.896Z,2.05
2022-08-22T19:52:24.415Z,2.50
2022-08-22T19:55:27.246Z,2.58
2022-08-22T19:58:32.001Z,2.15
2022-08-22T20:01:35.988Z,1.92
2022-08-22T20:04:39.169Z,2.30
2022-08-22T20:07:42.018Z,1.92
2022-08-22T20:10:44.999Z,2.20
2022-08-22T20:13:48.551Z,2.00
2022-08-22T20:16:51.264Z,2.15
2022-08-22T20:23:16.468Z,2.17
2022-08-22T20:26:19.489Z,2.30
2022-08-22T20:29:22.754Z,1.95
2022-08-22T20:32:25.739Z,2.40
2022-08-22T20:35:28.376Z,2.13
2022-08-22T20:38:31.037Z,2.00
2022-08-22T20:41:33.475Z,2.20
2022-08-22T20:44:36.387Z,2.05
2022-08-22T20:47:41.165Z,1.90
2022-08-22T20:50:45.058Z,2.50
2022-08-22T20:53:48.415Z,1.83
2022-08-22T20:56:53.658Z,2.25
2022-08-22T20:59:56.438Z,2.55
2022-08-22T21:02:59.078Z,1.80
2022-08-22T21:06:01.958Z,2.10
2022-08-22T21:09:05.961Z,2.30
2022-08-22T21:12:08.149Z,2.08
2022-08-22T21:15:10.689Z,2.20
2022-08-22T21:18:13.641Z,1.98
2022-08-22T21:21:17.310Z,1.90
2022-08-22T21:24:20.356Z,2.08
2022-08-22T21:27:22.950Z,2.30
2022-08-22T21:30:25.606Z,2.03
2022-08-22T21:33:28.140Z,1.80
2022-08-22T21:36:30.648Z,1.98
2022-08-22T21:39:33.273Z,2.13
2022-08-22T21:42:36.322Z,2.20
2022-08-22T21:45:38.796Z,2.00
2022-08-22T21:48:41.756Z,2.08
2022-08-22T21:51:44.614Z,2.10
2022-08-22T21:54:47.232Z,1.90
2022-08-22T21:57:49.462Z,1.73
2022-08-22T22:00:51.904Z,2.25
2022-08-22T22:03:54.664Z,1.95
2022-08-22T22:06:57.279Z,2.05
2022-08-22T22:10:00.376Z,2.10
2022-08-22T22:13:02.974Z,2.05
2022-08-22T22:16:05.198Z,2.42
2022-08-22T22:19:07.446Z,2.28
2022-08-22T22:22:10.014Z,1.80
2022-08-22T22:25:38.810Z,1.90
2022-08-22T22:28:35.422Z,2.00
2022-08-22T22:31:37.683Z,1.80
2022-08-22T22:34:40.191Z,1.92
2022-08-22T22:37:43.540Z,2.00
2022-08-22T22:40:46.326Z,2.30
2022-08-22T22:43:48.836Z,2.00
2022-08-22T22:46:52.024Z,1.90
2022-08-22T22:49:54.962Z,1.90
2022-08-22T22:52:57.536Z,1.88
2022-08-22T22:56:00.745Z,1.88
2022-08-22T22:59:13.543Z,1.90
2022-08-22T23:02:17.487Z,2.10
2022-08-22T23:05:19.998Z,1.85
2022-08-22T23:08:22.806Z,1.90
2022-08-22T23:11:25.764Z,1.90
2022-08-22T23:14:28.661Z,1.92
2022-08-22T23:17:31.064Z,2.10
2022-08-22T23:20:33.375Z,2.03
2022-08-22T23:23:35.589Z,2.15
2022-08-22T23:26:38.137Z,1.92
2022-08-22T23:29:40.517Z,1.77
2022-08-22T23:32:42.684Z,2.28
2022-08-22T23:35:45.788Z,2.10
2022-08-22T23:38:48.998Z,2.00
2022-08-22T23:41:51.894Z,2.10
2022-08-22T23:44:54.822Z,2.10
2022-08-22T23:47:58.278Z,2.03
2022-08-22T23:51:01.321Z,2.10
2022-08-22T23:54:03.813Z,2.55
2022-08-22T23:57:11.544Z,2.55
